Main page
METAR-TAF:

METAR-TAF

Airports :

Shahjalal International Airport

Dhaka, Bangladesh

latitude: 23-50-34N, longitude: 090-24-02E, elevation: 8 m

Current weather observation

The report was made 44 minutes ago, at 09:00 UTC
Wind 3 kt from the Southeast
Temperature 36°C
Humidity 37%
Pressure 1009 hPa
Visibility: 4000 m
Few clouds at a height of 1500 ft
Scattered clouds at a height of 10000 ft
haze,

METAR: VGHS 130900Z 13003KT 4000 HZ FEW015 SCT100 36/19 Q1009 NOSIG

Time: 15:44 (09:44 UTC)

Forecast

The report was made 4 hours and 44 minutes ago, at 05:00 UTC
Forecast valid from 13 at 06 UTC to 14 at 12 UTC
Wind 6 kt from the East
Visibility: 4000 m
Scattered clouds at a height of 10000 ft
haze
Becoming
from 13 at 12 UTC to 13 at 14 UTC
Wind 6 kt from the West
Becoming
from 14 at 00 UTC to 14 at 02 UTC
Visibility: 3500 m
haze
Becoming
from 14 at 06 UTC to 14 at 08 UTC
Visibility: 4000 m
haze,

TAF: VGHS 130500Z 1306/1412 08006KT 4000 HZ SCT100 BECMG 1312/1314 26006KT BECMG 1400/1402 3500 HZ BECMG 1406/1408 4000 HZ

Weather observations and forecasts of more than 4000 airports (METAR and TAF reports).

The available stations are represented by yellow and red dots on the map.

Hover mouse over dot to see the name of the station.

Then click to see weather observations and forecasts.

To change the map : click on the green buttons with a black cross to zoom in, on the green button with a dash to zoom out, or on the green arrows for adjacent maps.


METAR-TAF: